Chihuahua, Texas
Current Conditions -  °F | °C
As of 3:53 AM on Thursday 23 Oct 2014 (Local Time) from KMFE Reporting Station
Broken Clouds Broken Clouds  
Wind Chill: 71°   Ceiling: 9000
Heat Index: 71°   Visibility: 10mi
Dew Point: 67°   Wind: 6mph
Humidity: 87%   Direction: 360°N
Pressure: 30.03"   Gusts: NA
Location:  26.2167°N, 98.325°W
Report Text: KMFE 230853Z AUTO 36005KT 10SM BKN090 22/19 A3003 RMK AO2 SLP166 T02170194 56005
Loading
Personal Weather Stations






























Interactive Weather Map
Tropical Storm Tracking
New forecast layout! Learn more

10-Day Weather Forecast

Advertisements
Track Severe Weather on mobile